createdAt,value
2023-02-05T00:00:25.826Z,3.73
2023-02-05T00:02:28.435Z,3.72
2023-02-05T00:04:31.032Z,3.74
2023-02-05T00:06:33.710Z,3.71
2023-02-05T00:08:36.317Z,3.72
2023-02-05T00:10:38.913Z,3.72
2023-02-05T00:12:41.553Z,3.72
2023-02-05T00:14:45.679Z,3.72
2023-02-05T00:16:48.349Z,3.71
2023-02-05T00:18:51.023Z,3.70
2023-02-05T00:20:53.565Z,3.72
2023-02-05T00:22:56.821Z,3.76
2023-02-05T00:24:59.396Z,3.76
2023-02-05T00:27:01.964Z,3.77
2023-02-05T00:29:04.798Z,3.75
2023-02-05T00:31:14.755Z,3.72
2023-02-05T00:33:17.368Z,3.72
2023-02-05T00:35:19.919Z,3.72
2023-02-05T00:37:22.528Z,3.79
2023-02-05T00:39:25.143Z,3.75
2023-02-05T00:41:27.727Z,3.69
2023-02-05T00:43:30.282Z,3.68
2023-02-05T00:45:35.675Z,3.69
2023-02-05T00:47:39.845Z,3.71
2023-02-05T00:49:42.378Z,3.64
2023-02-05T00:51:45.358Z,3.68
2023-02-05T00:53:47.932Z,3.59
2023-02-05T00:55:50.908Z,3.56
2023-02-05T00:57:53.512Z,3.56
2023-02-05T00:59:56.082Z,3.56
2023-02-05T01:01:58.642Z,3.59
2023-02-05T01:04:02.581Z,3.62
2023-02-05T01:06:05.219Z,3.63
2023-02-05T01:08:08.889Z,3.61
2023-02-05T01:10:11.557Z,3.58
2023-02-05T01:12:15.062Z,3.61
2023-02-05T01:14:17.690Z,3.60
2023-02-05T01:16:20.376Z,3.59
2023-02-05T01:18:22.994Z,3.60
2023-02-05T01:20:26.907Z,3.64
2023-02-05T01:22:29.537Z,3.63
2023-02-05T01:24:34.619Z,3.61
2023-02-05T01:26:37.346Z,3.72
2023-02-05T01:28:40.011Z,3.65
2023-02-05T01:30:42.632Z,3.63
2023-02-05T01:32:45.243Z,3.63
2023-02-05T01:34:47.783Z,3.62
2023-02-05T01:36:51.696Z,3.64
2023-02-05T01:38:54.418Z,3.60
2023-02-05T01:40:59.811Z,3.60
2023-02-05T01:43:02.421Z,3.60
2023-02-05T01:45:50.790Z,3.56
2023-02-05T01:47:55.399Z,3.58
2023-02-05T01:49:58.820Z,3.57
2023-02-05T01:52:08.000Z,3.61
2023-02-05T01:54:10.704Z,3.59
2023-02-05T01:56:18.133Z,3.60
2023-02-05T01:58:20.927Z,3.61
2023-02-05T02:00:24.336Z,3.61
2023-02-05T02:02:29.747Z,3.61
2023-02-05T02:04:38.302Z,3.59
2023-02-05T02:06:41.016Z,3.59
2023-02-05T02:08:44.921Z,3.55
2023-02-05T02:10:49.767Z,3.52
2023-02-05T02:12:54.315Z,3.50
2023-02-05T02:15:03.502Z,3.51
2023-02-05T02:17:08.341Z,3.46
2023-02-05T02:19:22.350Z,3.47
2023-02-05T02:21:56.370Z,3.45
2023-02-05T02:24:14.616Z,3.43
2023-02-05T02:26:29.502Z,3.38
2023-02-05T02:28:37.220Z,3.39
2023-02-05T02:30:43.595Z,3.38
2023-02-05T02:32:53.657Z,3.38
2023-02-05T02:35:02.142Z,3.40
2023-02-05T02:37:09.629Z,3.39
2023-02-05T02:39:17.890Z,3.35
2023-02-05T02:41:26.224Z,3.33
2023-02-05T02:43:33.050Z,3.29
2023-02-05T02:45:44.470Z,3.25
2023-02-05T02:47:53.261Z,3.20
2023-02-05T02:49:58.702Z,3.19
2023-02-05T02:52:05.917Z,3.17
2023-02-05T02:54:14.220Z,3.18
2023-02-05T02:56:20.441Z,3.21
2023-02-05T02:58:26.862Z,3.20
2023-02-05T03:00:30.687Z,3.18
2023-02-05T03:02:37.587Z,3.19
2023-02-05T03:04:42.266Z,3.18
2023-02-05T03:06:48.788Z,3.19
2023-02-05T03:08:55.876Z,3.20
2023-02-05T03:11:02.979Z,3.25
2023-02-05T03:13:05.559Z,3.26
2023-02-05T03:15:08.968Z,3.25
2023-02-05T03:17:18.545Z,3.25
2023-02-05T03:19:22.563Z,3.30
2023-02-05T03:21:29.141Z,3.30
2023-02-05T03:23:31.781Z,3.34
2023-02-05T03:25:34.706Z,3.34
2023-02-05T03:27:38.262Z,3.38
2023-02-05T03:29:44.700Z,3.34
2023-02-05T03:31:58.539Z,3.33
2023-02-05T03:34:15.937Z,3.30
2023-02-05T03:36:26.291Z,3.30
2023-02-05T03:38:40.010Z,3.30
2023-02-05T03:40:49.625Z,3.24
2023-02-05T03:42:59.910Z,3.25
2023-02-05T03:45:24.763Z,3.25
2023-02-05T03:47:38.693Z,3.23
2023-02-05T03:49:53.106Z,3.26
2023-02-05T03:52:01.946Z,3.27
2023-02-05T03:54:12.050Z,3.22
2023-02-05T03:56:20.469Z,3.18
2023-02-05T03:58:26.962Z,3.17
2023-02-05T04:00:30.169Z,3.17
2023-02-05T04:02:33.447Z,3.17
2023-02-05T04:04:36.054Z,3.18
2023-02-05T04:06:38.583Z,3.18
2023-02-05T04:08:44.005Z,3.22
2023-02-05T04:10:46.619Z,3.26
2023-02-05T04:12:49.271Z,3.24
2023-02-05T04:14:51.840Z,3.24
2023-02-05T04:16:54.434Z,3.24
2023-02-05T04:18:57.002Z,3.23
2023-02-05T04:20:59.982Z,3.22
2023-02-05T04:23:02.667Z,3.23
2023-02-05T04:25:07.559Z,3.23
2023-02-05T04:27:10.098Z,3.19
2023-02-05T04:29:12.698Z,3.20
2023-02-05T04:31:15.640Z,3.19
2023-02-05T04:33:18.276Z,3.22
2023-02-05T04:35:20.829Z,3.20
2023-02-05T04:37:24.972Z,3.18
2023-02-05T04:39:27.643Z,3.17
2023-02-05T04:41:31.565Z,3.14
2023-02-05T04:43:34.111Z,3.12
2023-02-05T04:45:36.923Z,3.11
2023-02-05T04:47:39.776Z,3.13
2023-02-05T04:49:42.341Z,3.07
2023-02-05T04:51:47.135Z,3.02
2023-02-05T04:53:49.714Z,2.99
2023-02-05T04:55:52.310Z,2.93
2023-02-05T04:57:56.260Z,2.93
2023-02-05T04:59:58.975Z,2.86
2023-02-05T05:02:01.882Z,2.81
2023-02-05T05:04:04.461Z,2.83
2023-02-05T05:06:08.128Z,2.79
2023-02-05T05:08:10.707Z,2.73
2023-02-05T05:10:13.433Z,2.69
2023-02-05T05:12:16.114Z,2.67
2023-02-05T05:14:20.593Z,2.61
2023-02-05T05:16:23.196Z,2.61
2023-02-05T05:18:25.888Z,2.66
2023-02-05T05:20:29.755Z,2.61
2023-02-05T05:22:32.437Z,2.56
2023-02-05T05:24:35.055Z,2.52
2023-02-05T05:26:39.235Z,2.53
2023-02-05T05:28:41.804Z,2.54
2023-02-05T05:30:46.958Z,2.55
2023-02-05T05:32:49.528Z,2.57
2023-02-05T05:34:52.064Z,2.61
2023-02-05T05:36:54.756Z,2.62
2023-02-05T05:39:17.385Z,2.64
2023-02-05T05:41:40.555Z,2.70
2023-02-05T05:43:47.731Z,2.74
2023-02-05T05:45:53.553Z,2.72
2023-02-05T05:47:56.247Z,2.71
2023-02-05T05:49:58.892Z,2.70
2023-02-05T05:52:01.701Z,2.73
2023-02-05T05:54:04.386Z,2.77
2023-02-05T05:56:07.370Z,2.77
2023-02-05T05:58:10.579Z,2.80
2023-02-05T06:00:14.579Z,2.85
2023-02-05T06:02:18.819Z,2.79
2023-02-05T06:04:21.439Z,2.78
2023-02-05T06:06:24.383Z,2.78
2023-02-05T06:08:26.939Z,2.78
2023-02-05T06:10:29.645Z,2.76
2023-02-05T06:12:32.209Z,2.79
2023-02-05T06:14:35.109Z,2.79
2023-02-05T06:16:37.647Z,2.78
2023-02-05T06:18:41.610Z,2.79
2023-02-05T06:20:44.393Z,2.80
2023-02-05T06:22:50.025Z,2.78
2023-02-05T06:24:52.612Z,2.79
2023-02-05T06:26:55.150Z,2.77
2023-02-05T06:29:03.046Z,2.76
2023-02-05T06:31:05.998Z,2.76
2023-02-05T06:33:08.611Z,2.77
2023-02-05T06:35:12.551Z,2.78
2023-02-05T06:37:15.474Z,2.80
2023-02-05T06:39:18.097Z,2.79
2023-02-05T06:41:20.684Z,2.80
2023-02-05T06:43:23.261Z,2.80
2023-02-05T06:45:25.953Z,2.81
2023-02-05T06:47:28.502Z,2.82
2023-02-05T06:49:31.043Z,2.80
2023-02-05T06:51:35.012Z,2.79
2023-02-05T06:53:37.646Z,2.76
2023-02-05T06:55:40.235Z,2.76
2023-02-05T06:57:42.769Z,2.77
2023-02-05T06:59:45.295Z,2.76
2023-02-05T07:01:47.934Z,2.74
2023-02-05T07:03:54.424Z,2.75
2023-02-05T07:05:57.011Z,2.74
2023-02-05T07:08:01.296Z,2.72
2023-02-05T07:10:04.395Z,2.70
2023-02-05T07:12:07.617Z,2.72
2023-02-05T07:14:10.230Z,2.69
2023-02-05T07:16:12.896Z,2.72
2023-02-05T07:18:15.521Z,2.72
2023-02-05T07:20:23.232Z,2.75
2023-02-05T07:22:25.935Z,2.74
2023-02-05T07:24:29.872Z,2.80
2023-02-05T07:26:32.438Z,2.82
2023-02-05T07:28:37.927Z,2.85
2023-02-05T07:30:40.489Z,2.87
2023-02-05T07:32:43.113Z,2.92
2023-02-05T07:34:45.665Z,2.93
2023-02-05T07:36:51.029Z,2.97
2023-02-05T07:38:53.685Z,3.03
2023-02-05T07:40:57.692Z,3.02
2023-02-05T07:43:00.460Z,3.03
2023-02-05T07:45:03.288Z,3.06
2023-02-05T07:47:05.947Z,3.07
2023-02-05T07:49:08.568Z,3.08
2023-02-05T07:51:17.310Z,3.11
2023-02-05T07:53:20.195Z,3.11
2023-02-05T07:55:22.797Z,3.13
2023-02-05T07:57:27.495Z,3.13
2023-02-05T07:59:30.205Z,3.16
2023-02-05T08:01:32.784Z,3.13
2023-02-05T08:03:35.833Z,3.15
2023-02-05T08:05:39.113Z,3.16
2023-02-05T08:07:41.727Z,3.17
2023-02-05T08:09:44.380Z,3.19
2023-02-05T08:11:47.024Z,3.21
2023-02-05T08:13:50.985Z,3.23
2023-02-05T08:15:53.639Z,3.22
2023-02-05T08:17:56.206Z,3.26
2023-02-05T08:19:59.869Z,3.24
2023-02-05T08:22:02.480Z,3.32
2023-02-05T08:24:05.319Z,3.34
2023-02-05T08:26:07.913Z,3.33
2023-02-05T08:28:10.607Z,3.32
2023-02-05T08:30:17.672Z,3.36
2023-02-05T08:32:20.443Z,3.39
2023-02-05T08:34:23.046Z,3.41
2023-02-05T08:36:25.659Z,3.39
2023-02-05T08:38:28.221Z,3.41
2023-02-05T08:40:30.776Z,3.42
2023-02-05T08:42:33.405Z,3.38
2023-02-05T08:44:35.966Z,3.40
2023-02-05T08:46:49.829Z,3.39
2023-02-05T08:48:54.411Z,3.47
2023-02-05T08:50:56.975Z,3.48
2023-02-05T08:52:59.521Z,3.44
2023-02-05T08:55:02.210Z,3.45
2023-02-05T08:57:04.968Z,3.48
2023-02-05T08:59:08.339Z,3.49
2023-02-05T09:01:12.848Z,3.52
2023-02-05T09:03:16.892Z,3.53
2023-02-05T09:05:19.596Z,3.60
2023-02-05T09:07:22.221Z,3.62
2023-02-05T09:09:24.799Z,3.66
2023-02-05T09:11:27.847Z,3.68
2023-02-05T09:13:30.439Z,3.73
2023-02-05T09:15:33.254Z,3.91
2023-02-05T09:17:36.064Z,3.99
2023-02-05T09:19:41.450Z,3.90
2023-02-05T09:21:44.018Z,3.99
2023-02-05T09:23:46.601Z,3.92
2023-02-05T09:25:49.328Z,3.99
2023-02-05T09:27:51.944Z,4.03
2023-02-05T09:29:54.501Z,4.06
2023-02-05T09:31:57.248Z,4.03
2023-02-05T09:33:59.778Z,4.06
2023-02-05T09:36:08.621Z,4.07
2023-02-05T09:38:14.701Z,4.15
2023-02-05T09:40:22.008Z,4.16
2023-02-05T09:42:32.811Z,4.15
2023-02-05T09:44:50.134Z,4.13
2023-02-05T09:47:02.683Z,4.13
2023-02-05T09:49:14.521Z,4.14
2023-02-05T09:51:22.964Z,4.15
2023-02-05T09:53:29.852Z,4.19
2023-02-05T09:55:37.138Z,4.17
2023-02-05T09:57:41.732Z,4.15
2023-02-05T09:59:47.675Z,4.13
2023-02-05T10:01:53.121Z,4.16
2023-02-05T10:04:00.033Z,4.28
2023-02-05T10:06:17.304Z,4.16
2023-02-05T10:08:29.278Z,4.19
2023-02-05T10:10:40.889Z,4.21
2023-02-05T10:12:58.573Z,4.23
2023-02-05T10:15:12.632Z,4.24
2023-02-05T10:17:29.884Z,4.25
2023-02-05T10:19:47.078Z,4.30
2023-02-05T10:22:13.488Z,4.32
2023-02-05T10:24:34.517Z,4.31
2023-02-05T10:26:44.861Z,4.29
2023-02-05T10:29:09.360Z,4.29
2023-02-05T10:31:23.534Z,4.29
2023-02-05T10:33:42.322Z,4.33
2023-02-05T10:35:51.920Z,4.33
2023-02-05T10:37:57.708Z,4.33
2023-02-05T10:40:03.750Z,4.27
2023-02-05T10:42:16.776Z,4.28
2023-02-05T10:44:25.813Z,4.35
2023-02-05T10:46:34.232Z,4.28
2023-02-05T10:48:44.567Z,4.27
2023-02-05T10:50:56.700Z,4.25
2023-02-05T10:53:00.560Z,4.25
2023-02-05T10:55:04.926Z,4.16
2023-02-05T10:57:13.666Z,4.12
2023-02-05T10:59:23.368Z,4.14
2023-02-05T11:01:30.999Z,4.23
2023-02-05T11:03:34.350Z,4.19
2023-02-05T11:05:39.621Z,4.21
2023-02-05T11:07:46.331Z,4.11
2023-02-05T11:09:48.945Z,4.13
2023-02-05T11:11:54.500Z,4.07
2023-02-05T11:13:59.890Z,4.13
2023-02-05T11:16:05.303Z,4.27
2023-02-05T11:18:10.038Z,4.27
2023-02-05T11:20:26.018Z,4.29
2023-02-05T11:22:31.346Z,4.27
2023-02-05T11:24:36.099Z,4.32
2023-02-05T11:26:38.657Z,4.26
2023-02-05T11:28:42.579Z,4.31
2023-02-05T11:30:51.059Z,4.24
2023-02-05T11:32:53.998Z,4.32
2023-02-05T11:35:13.709Z,4.22
2023-02-05T11:37:18.436Z,4.27
2023-02-05T11:39:34.091Z,4.37
2023-02-05T11:41:48.262Z,4.52
2023-02-05T11:43:53.714Z,4.31
2023-02-05T11:45:58.070Z,4.25
2023-02-05T11:48:03.578Z,4.27
2023-02-05T11:50:19.373Z,4.33
2023-02-05T11:52:29.134Z,4.36
2023-02-05T11:54:34.167Z,4.35
2023-02-05T11:56:37.133Z,4.38
2023-02-05T11:58:39.793Z,4.37
2023-02-05T12:00:51.863Z,4.52
2023-02-05T12:03:05.979Z,4.35
2023-02-05T12:05:18.156Z,4.33
2023-02-05T12:07:22.901Z,4.35
2023-02-05T12:09:27.376Z,4.48
2023-02-05T12:11:55.127Z,4.56
2023-02-05T12:14:07.771Z,4.60
2023-02-05T12:16:19.813Z,4.53
2023-02-05T12:18:31.996Z,4.39
2023-02-05T12:20:41.056Z,4.59
2023-02-05T12:23:02.867Z,4.54
2023-02-05T12:25:15.315Z,4.57
2023-02-05T12:27:30.790Z,4.69
2023-02-05T12:29:54.722Z,4.61
2023-02-05T12:32:09.777Z,4.74
2023-02-05T12:34:27.772Z,4.47
2023-02-05T12:36:45.534Z,4.42
2023-02-05T12:39:02.970Z,4.47
2023-02-05T12:41:18.290Z,4.36
2023-02-05T12:43:32.345Z,4.51
2023-02-05T12:45:50.323Z,4.48
2023-02-05T12:48:09.417Z,4.55
2023-02-05T12:50:27.286Z,4.57
2023-02-05T12:52:49.037Z,4.49
2023-02-05T12:55:04.079Z,4.57
2023-02-05T12:57:09.577Z,4.47
2023-02-05T12:59:16.622Z,4.45
2023-02-05T13:01:23.072Z,4.68
2023-02-05T13:03:32.445Z,4.57
2023-02-05T13:05:40.009Z,4.68
2023-02-05T13:07:46.979Z,4.45
2023-02-05T13:09:54.104Z,4.41
2023-02-05T13:11:59.841Z,4.36
2023-02-05T13:14:07.401Z,4.28
2023-02-05T13:16:15.339Z,4.38
2023-02-05T13:18:23.177Z,4.32
2023-02-05T13:20:46.862Z,4.45
2023-02-05T13:23:13.848Z,4.30
2023-02-05T13:25:40.810Z,4.22
2023-02-05T13:28:05.273Z,4.31
2023-02-05T13:30:14.329Z,4.32
2023-02-05T13:32:17.649Z,4.27
2023-02-05T13:34:21.667Z,4.17
2023-02-05T13:37:01.308Z,4.14
2023-02-05T13:39:24.338Z,4.21
2023-02-05T13:41:49.116Z,4.15
2023-02-05T13:44:15.349Z,4.09
2023-02-05T13:46:49.408Z,4.07
2023-02-05T13:49:22.997Z,4.09
2023-02-05T13:51:44.446Z,4.07
2023-02-05T13:54:20.617Z,4.32
2023-02-05T13:56:43.078Z,4.11
2023-02-05T13:58:49.958Z,4.08
2023-02-05T14:01:00.751Z,4.07
2023-02-05T14:03:05.655Z,4.07
2023-02-05T14:05:09.336Z,4.08
2023-02-05T14:07:25.454Z,4.08
2023-02-05T14:09:35.247Z,4.06
2023-02-05T14:11:51.043Z,4.11
2023-02-05T14:14:27.964Z,4.06
2023-02-05T14:16:36.264Z,4.08
2023-02-05T14:19:04.076Z,4.08
2023-02-05T14:22:01.907Z,4.05
2023-02-05T14:24:26.905Z,4.00
2023-02-05T14:26:51.515Z,4.03
2023-02-05T14:28:54.241Z,4.03
2023-02-05T14:30:58.717Z,4.00
2023-02-05T14:33:05.261Z,4.00
2023-02-05T14:35:29.222Z,3.94
2023-02-05T14:37:38.160Z,3.92
2023-02-05T14:39:40.796Z,3.97
2023-02-05T14:41:52.579Z,3.92
2023-02-05T14:43:57.093Z,3.88
2023-02-05T14:46:04.768Z,3.91
2023-02-05T14:48:07.378Z,3.79
2023-02-05T14:50:17.116Z,3.87
2023-02-05T14:52:29.619Z,3.84
2023-02-05T14:54:36.423Z,3.75
2023-02-05T14:56:43.895Z,3.71
2023-02-05T14:58:47.931Z,3.70
2023-02-05T15:00:50.624Z,3.66
2023-02-05T15:03:31.379Z,3.57
2023-02-05T15:05:38.592Z,3.63
2023-02-05T15:07:41.417Z,3.60
2023-02-05T15:09:54.454Z,3.61
2023-02-05T15:12:15.541Z,3.60
2023-02-05T15:14:41.328Z,3.68
2023-02-05T15:16:43.873Z,3.67
2023-02-05T15:18:49.093Z,3.64
2023-02-05T15:20:56.237Z,3.63
2023-02-05T15:23:05.640Z,3.63
2023-02-05T15:25:19.383Z,3.58
2023-02-05T15:27:25.578Z,3.56
2023-02-05T15:29:32.969Z,3.60
2023-02-05T15:31:42.997Z,3.50
2023-02-05T15:33:57.030Z,3.48
2023-02-05T15:36:01.078Z,3.45
2023-02-05T15:38:09.625Z,3.43
2023-02-05T15:40:19.970Z,3.43
2023-02-05T15:42:30.860Z,3.41
2023-02-05T15:44:37.535Z,3.44
2023-02-05T15:46:40.375Z,3.43
2023-02-05T15:48:43.034Z,3.45
2023-02-05T15:50:49.443Z,3.46
2023-02-05T15:52:52.458Z,3.44
2023-02-05T15:54:57.981Z,3.44
2023-02-05T15:57:00.596Z,3.47
2023-02-05T15:59:05.897Z,3.48
2023-02-05T16:01:09.893Z,3.50
2023-02-05T16:03:27.552Z,3.51
2023-02-05T16:05:31.725Z,3.55
2023-02-05T16:07:41.441Z,3.54
2023-02-05T16:09:48.292Z,3.54
2023-02-05T16:11:50.958Z,3.55
2023-02-05T16:14:04.042Z,3.53
2023-02-05T16:16:11.551Z,3.50
2023-02-05T16:18:19.013Z,3.51
2023-02-05T16:20:27.214Z,3.49
2023-02-05T16:22:38.273Z,3.45
2023-02-05T16:24:44.213Z,3.44
2023-02-05T16:26:51.069Z,3.46
2023-02-05T16:28:59.125Z,3.48
2023-02-05T16:31:02.730Z,3.48
2023-02-05T16:33:08.928Z,3.49
2023-02-05T16:35:22.845Z,3.48
2023-02-05T16:37:31.208Z,3.49
2023-02-05T16:39:40.258Z,3.47
2023-02-05T16:41:45.062Z,3.48
2023-02-05T16:43:47.859Z,3.42
2023-02-05T16:46:22.314Z,3.36
2023-02-05T16:48:29.956Z,3.38
2023-02-05T16:50:38.176Z,3.39
2023-02-05T16:52:41.918Z,3.35
2023-02-05T16:54:44.597Z,3.33
2023-02-05T16:56:58.510Z,3.26
2023-02-05T16:59:03.348Z,3.20
2023-02-05T17:01:06.417Z,3.17
2023-02-05T17:03:18.951Z,3.17
2023-02-05T17:05:28.140Z,3.16
2023-02-05T17:07:31.910Z,3.15
2023-02-05T17:09:36.712Z,3.17
2023-02-05T17:11:41.324Z,3.15
2023-02-05T17:13:46.539Z,3.13
2023-02-05T17:15:49.184Z,3.11
2023-02-05T17:20:08.452Z,3.06
2023-02-05T17:22:21.727Z,3.04
2023-02-05T17:24:27.153Z,2.99
2023-02-05T17:26:33.347Z,2.96
2023-02-05T17:28:43.828Z,2.97
2023-02-05T17:30:48.137Z,2.94
2023-02-05T17:32:51.171Z,2.97
2023-02-05T17:34:54.123Z,2.97
2023-02-05T17:36:56.731Z,2.97
2023-02-05T17:39:00.652Z,3.01
2023-02-05T17:41:21.905Z,2.98
2023-02-05T17:43:24.466Z,2.95
2023-02-05T17:45:31.327Z,3.00
2023-02-05T17:47:33.938Z,2.98
2023-02-05T17:49:36.821Z,3.02
2023-02-05T17:51:42.266Z,3.02
2023-02-05T17:53:44.801Z,3.02
2023-02-05T17:55:48.751Z,3.04
2023-02-05T17:57:51.425Z,3.02
2023-02-05T17:59:55.238Z,3.00
2023-02-05T18:01:58.272Z,3.03
2023-02-05T18:04:00.933Z,2.99
2023-02-05T18:06:03.557Z,2.99
2023-02-05T18:08:08.055Z,2.99
2023-02-05T18:10:14.598Z,3.00
2023-02-05T18:12:18.462Z,3.01
2023-02-05T18:14:21.787Z,3.03
2023-02-05T18:16:24.789Z,3.06
2023-02-05T18:18:27.475Z,3.10
2023-02-05T18:20:30.211Z,3.11
2023-02-05T18:22:33.658Z,3.14
2023-02-05T18:24:37.113Z,3.18
2023-02-05T18:26:39.679Z,3.16
2023-02-05T18:28:44.099Z,3.17
2023-02-05T18:30:46.726Z,3.16
2023-02-05T18:32:49.425Z,3.12
2023-02-05T18:34:51.988Z,3.14
2023-02-05T18:36:54.705Z,3.15
2023-02-05T18:38:58.534Z,3.12
2023-02-05T18:41:11.890Z,3.10
2023-02-05T18:43:14.450Z,3.11
2023-02-05T18:45:18.555Z,3.11
2023-02-05T18:47:21.112Z,3.05
2023-02-05T18:49:24.136Z,2.99
2023-02-05T18:51:26.921Z,3.04
2023-02-05T18:53:29.843Z,2.99
2023-02-05T18:55:35.457Z,2.98
2023-02-05T18:57:38.068Z,2.99
2023-02-05T18:59:41.556Z,2.98
2023-02-05T19:01:45.434Z,2.99
2023-02-05T19:03:48.226Z,2.99
2023-02-05T19:05:50.787Z,2.99
2023-02-05T19:07:56.231Z,3.02
2023-02-05T19:09:59.316Z,3.04
2023-02-05T19:12:01.937Z,3.04
2023-02-05T19:14:07.766Z,3.06
2023-02-05T19:16:12.861Z,3.06
2023-02-05T19:18:16.834Z,3.07
2023-02-05T19:20:19.395Z,3.09
2023-02-05T19:22:22.262Z,3.12
2023-02-05T19:24:24.838Z,3.12
2023-02-05T19:26:32.425Z,3.19
2023-02-05T19:28:37.915Z,3.19
2023-02-05T19:30:40.560Z,3.17
2023-02-05T19:32:43.179Z,3.18
2023-02-05T19:34:47.151Z,3.18
2023-02-05T19:36:49.941Z,3.20
2023-02-05T19:38:53.508Z,3.19
2023-02-05T19:40:56.225Z,3.23
2023-02-05T19:42:59.218Z,3.18
2023-02-05T19:45:01.750Z,3.19
2023-02-05T19:47:04.489Z,3.20
2023-02-05T19:49:11.860Z,3.22
2023-02-05T19:51:18.537Z,3.25
2023-02-05T19:53:21.300Z,3.25
2023-02-05T19:55:23.883Z,3.25
2023-02-05T19:57:26.530Z,3.18
2023-02-05T19:59:29.852Z,3.16
2023-02-05T20:01:33.988Z,3.20
2023-02-05T20:03:36.627Z,3.21
2023-02-05T20:05:39.180Z,3.22
2023-02-05T20:07:43.060Z,3.25
2023-02-05T20:09:45.594Z,3.25
2023-02-05T20:11:50.079Z,3.25
2023-02-05T20:13:53.932Z,3.27
2023-02-05T20:15:56.847Z,3.32
2023-02-05T20:17:59.398Z,3.33
2023-02-05T20:20:12.731Z,3.37
2023-02-05T20:22:18.771Z,3.36
2023-02-05T20:24:22.791Z,3.36
2023-02-05T20:26:26.231Z,3.36
2023-02-05T20:28:28.879Z,3.39
2023-02-05T20:30:48.926Z,3.36
2023-02-05T20:32:51.493Z,3.39
2023-02-05T20:34:54.056Z,3.40
2023-02-05T20:36:58.691Z,3.41
2023-02-05T20:39:03.532Z,3.42
2023-02-05T20:41:14.966Z,3.40
2023-02-05T20:43:17.591Z,3.42
2023-02-05T20:45:20.262Z,3.41
2023-02-05T20:47:22.814Z,3.43
2023-02-05T20:49:26.799Z,3.41
2023-02-05T20:51:29.367Z,3.44
2023-02-05T20:53:31.930Z,3.41
2023-02-05T20:55:34.834Z,3.39
2023-02-05T20:57:38.828Z,3.38
2023-02-05T20:59:41.584Z,3.38
2023-02-05T21:01:44.213Z,3.41
2023-02-05T21:03:49.241Z,3.41
2023-02-05T21:05:51.893Z,3.40
2023-02-05T21:07:54.587Z,3.42
2023-02-05T21:09:58.936Z,3.44
2023-02-05T21:12:02.208Z,3.45
2023-02-05T21:14:06.284Z,3.43
2023-02-05T21:16:09.972Z,3.43
2023-02-05T21:18:13.376Z,3.43
2023-02-05T21:20:16.448Z,3.45
2023-02-05T21:22:19.038Z,3.48
2023-02-05T21:24:21.774Z,3.45
2023-02-05T21:26:26.928Z,3.43
2023-02-05T21:28:29.899Z,3.48
2023-02-05T21:30:34.186Z,3.42
2023-02-05T21:32:37.019Z,3.43
2023-02-05T21:34:39.642Z,3.44
2023-02-05T21:36:42.466Z,3.41
2023-02-05T21:38:45.171Z,3.43
2023-02-05T21:40:47.741Z,3.41
2023-02-05T21:42:50.296Z,3.39
2023-02-05T21:44:54.140Z,3.39
2023-02-05T21:46:58.046Z,3.41
2023-02-05T21:49:02.022Z,3.40
2023-02-05T21:51:08.601Z,3.41
2023-02-05T21:53:12.472Z,3.42
2023-02-05T21:55:15.087Z,3.42
2023-02-05T21:57:17.715Z,3.41
2023-02-05T21:59:20.459Z,3.42
2023-02-05T22:01:25.199Z,3.41
2023-02-05T22:03:29.104Z,3.39
2023-02-05T22:05:32.071Z,3.40
2023-02-05T22:07:34.651Z,3.36
2023-02-05T22:09:37.306Z,3.40
2023-02-05T22:11:40.568Z,3.40
2023-02-05T22:13:45.252Z,3.41
2023-02-05T22:15:47.804Z,3.40
2023-02-05T22:17:50.350Z,3.37
2023-02-05T22:19:54.426Z,3.36
2023-02-05T22:21:56.974Z,3.35
2023-02-05T22:24:00.984Z,3.38
2023-02-05T22:26:03.834Z,3.39
2023-02-05T22:28:06.691Z,3.37
2023-02-05T22:30:10.811Z,3.38
2023-02-05T22:32:13.392Z,3.38
2023-02-05T22:34:15.964Z,3.36
2023-02-05T22:36:21.177Z,3.36
2023-02-05T22:38:24.193Z,3.38
2023-02-05T22:40:26.726Z,3.38
2023-02-05T22:42:29.507Z,3.38
2023-02-05T22:44:33.856Z,3.42
2023-02-05T22:46:39.537Z,3.39
2023-02-05T22:48:43.881Z,3.39
2023-02-05T22:50:46.428Z,3.38
2023-02-05T22:52:50.362Z,3.38
2023-02-05T22:54:53.038Z,3.41
2023-02-05T22:56:55.635Z,3.39
2023-02-05T22:58:58.291Z,3.38
2023-02-05T23:01:08.657Z,3.36
2023-02-05T23:03:11.353Z,3.36
2023-02-05T23:05:13.962Z,3.35
2023-02-05T23:07:16.504Z,3.34
2023-02-05T23:09:20.424Z,3.35
2023-02-05T23:11:23.802Z,3.33
2023-02-05T23:13:26.368Z,3.35
2023-02-05T23:15:28.928Z,3.35
2023-02-05T23:17:31.479Z,3.37
2023-02-05T23:19:34.004Z,3.35
2023-02-05T23:21:37.759Z,3.34
2023-02-05T23:23:40.617Z,3.34
2023-02-05T23:25:45.849Z,3.33
2023-02-05T23:27:48.467Z,3.36
2023-02-05T23:29:51.153Z,3.36
2023-02-05T23:31:53.718Z,3.34
2023-02-05T23:33:56.565Z,3.38
2023-02-05T23:35:59.787Z,3.36
2023-02-05T23:38:02.350Z,3.40
2023-02-05T23:40:05.671Z,3.34
2023-02-05T23:42:11.701Z,3.35
2023-02-05T23:44:17.712Z,3.37
2023-02-05T23:46:20.346Z,3.36
2023-02-05T23:48:22.938Z,3.35
2023-02-05T23:50:25.487Z,3.35
2023-02-05T23:52:28.028Z,3.34
2023-02-05T23:54:30.599Z,3.35
2023-02-05T23:56:33.266Z,3.38
2023-02-05T23:58:37.142Z,3.36
